sensor_id;sensor_type;location;lat;lon;timestamp;pressure;altitude;pressure_sealevel;temperature;humidity
49709;BME280;35601;55.902;13.606;2024-01-30T00:02:20;101816.42;;;-1.82;69.77
49709;BME280;35601;55.902;13.606;2024-01-30T00:04:45;101819.96;;;-1.68;69.93
49709;BME280;35601;55.902;13.606;2024-01-30T00:07:11;101826.49;;;-2.19;69.93
49709;BME280;35601;55.902;13.606;2024-01-30T00:09:37;101827.72;;;-2.32;70.79
49709;BME280;35601;55.902;13.606;2024-01-30T00:12:02;101827.50;;;-2.31;71.02
49709;BME280;35601;55.902;13.606;2024-01-30T00:14:27;101834.70;;;-2.17;70.89
49709;BME280;35601;55.902;13.606;2024-01-30T00:16:53;101835.53;;;-2.28;71.22
49709;BME280;35601;55.902;13.606;2024-01-30T00:19:18;101836.68;;;-2.49;71.13
49709;BME280;35601;55.902;13.606;2024-01-30T00:21:44;101833.18;;;-2.16;71.33
49709;BME280;35601;55.902;13.606;2024-01-30T00:24:09;101838.34;;;-2.20;70.46
49709;BME280;35601;55.902;13.606;2024-01-30T00:26:35;101832.89;;;-2.37;69.65
49709;BME280;35601;55.902;13.606;2024-01-30T00:29:00;101834.45;;;-2.09;69.23
49709;BME280;35601;55.902;13.606;2024-01-30T00:31:25;101838.33;;;-1.81;69.21
49709;BME280;35601;55.902;13.606;2024-01-30T00:33:50;101835.84;;;-2.10;68.13
49709;BME280;35601;55.902;13.606;2024-01-30T00:36:16;101836.42;;;-2.34;67.81
49709;BME280;35601;55.902;13.606;2024-01-30T00:38:41;101833.74;;;-1.83;67.57
49709;BME280;35601;55.902;13.606;2024-01-30T00:41:08;101832.81;;;-2.12;67.16
49709;BME280;35601;55.902;13.606;2024-01-30T00:43:31;101828.87;;;-2.51;67.93
49709;BME280;35601;55.902;13.606;2024-01-30T00:45:57;101826.18;;;-2.45;68.29
49709;BME280;35601;55.902;13.606;2024-01-30T00:48:22;101821.79;;;-2.88;69.13
49709;BME280;35601;55.902;13.606;2024-01-30T00:50:48;101824.83;;;-4.17;70.40
49709;BME280;35601;55.902;13.606;2024-01-30T00:53:13;101820.60;;;-2.76;69.37
49709;BME280;35601;55.902;13.606;2024-01-30T00:55:38;101818.06;;;-2.60;69.13
49709;BME280;35601;55.902;13.606;2024-01-30T00:58:04;101817.13;;;-2.70;69.28
49709;BME280;35601;55.902;13.606;2024-01-30T01:00:29;101818.70;;;-2.72;69.01
49709;BME280;35601;55.902;13.606;2024-01-30T01:02:54;101821.00;;;-2.48;68.95
49709;BME280;35601;55.902;13.606;2024-01-30T01:05:20;101814.96;;;-2.54;69.17
49709;BME280;35601;55.902;13.606;2024-01-30T01:07:45;101818.78;;;-2.53;69.24
49709;BME280;35601;55.902;13.606;2024-01-30T01:10:10;101817.68;;;-2.57;69.34
49709;BME280;35601;55.902;13.606;2024-01-30T01:12:36;101816.79;;;-2.54;69.64
49709;BME280;35601;55.902;13.606;2024-01-30T01:15:01;101818.28;;;-2.54;70.24
49709;BME280;35601;55.902;13.606;2024-01-30T01:17:27;101817.97;;;-2.53;70.57
49709;BME280;35601;55.902;13.606;2024-01-30T01:19:52;101804.91;;;-2.44;70.43
49709;BME280;35601;55.902;13.606;2024-01-30T01:22:17;101792.33;;;-2.68;70.07
49709;BME280;35601;55.902;13.606;2024-01-30T01:24:42;101797.11;;;-2.59;70.67
49709;BME280;35601;55.902;13.606;2024-01-30T01:27:08;101807.72;;;-2.79;71.74
49709;BME280;35601;55.902;13.606;2024-01-30T01:29:33;101817.79;;;-2.98;73.30
49709;BME280;35601;55.902;13.606;2024-01-30T01:31:58;101821.59;;;-2.86;74.24
49709;BME280;35601;55.902;13.606;2024-01-30T01:34:24;101825.98;;;-2.87;74.49
49709;BME280;35601;55.902;13.606;2024-01-30T01:36:48;101826.06;;;-2.46;74.24
49709;BME280;35601;55.902;13.606;2024-01-30T01:39:13;101830.96;;;-2.66;74.25
49709;BME280;35601;55.902;13.606;2024-01-30T01:41:39;101835.83;;;-2.58;74.59
49709;BME280;35601;55.902;13.606;2024-01-30T01:44:04;101828.27;;;-2.46;74.83
49709;BME280;35601;55.902;13.606;2024-01-30T01:46:32;101829.04;;;-2.30;74.64
49709;BME280;35601;55.902;13.606;2024-01-30T01:48:55;101825.09;;;-2.16;74.35
49709;BME280;35601;55.902;13.606;2024-01-30T01:51:20;101823.08;;;-2.06;73.88
49709;BME280;35601;55.902;13.606;2024-01-30T01:53:46;101821.28;;;-1.98;73.62
49709;BME280;35601;55.902;13.606;2024-01-30T01:56:12;101824.25;;;-2.00;74.17
49709;BME280;35601;55.902;13.606;2024-01-30T01:58:37;101829.25;;;-2.21;75.14
49709;BME280;35601;55.902;13.606;2024-01-30T02:01:02;101833.59;;;-2.48;75.71
49709;BME280;35601;55.902;13.606;2024-01-30T02:03:27;101836.17;;;-2.17;76.20
49709;BME280;35601;55.902;13.606;2024-01-30T02:05:52;101838.63;;;-1.92;75.92
49709;BME280;35601;55.902;13.606;2024-01-30T02:08:18;101833.55;;;-2.20;75.11
49709;BME280;35601;55.902;13.606;2024-01-30T02:10:43;101830.94;;;-2.09;74.48
49709;BME280;35601;55.902;13.606;2024-01-30T02:13:09;101831.21;;;-1.75;74.14
49709;BME280;35601;55.902;13.606;2024-01-30T02:15:34;101825.70;;;-1.47;74.14
49709;BME280;35601;55.902;13.606;2024-01-30T02:17:59;101815.32;;;-1.97;74.13
49709;BME280;35601;55.902;13.606;2024-01-30T02:20:25;101814.58;;;-1.90;74.22
49709;BME280;35601;55.902;13.606;2024-01-30T02:22:52;101817.98;;;-1.91;74.21
49709;BME280;35601;55.902;13.606;2024-01-30T02:25:16;101818.45;;;-1.85;73.95
49709;BME280;35601;55.902;13.606;2024-01-30T02:27:41;101829.42;;;-1.70;74.65
49709;BME280;35601;55.902;13.606;2024-01-30T02:30:07;101829.33;;;-1.79;74.68
49709;BME280;35601;55.902;13.606;2024-01-30T02:32:31;101827.67;;;-1.82;74.83
49709;BME280;35601;55.902;13.606;2024-01-30T02:34:57;101830.71;;;-1.62;74.47
49709;BME280;35601;55.902;13.606;2024-01-30T02:37:22;101829.97;;;-1.65;74.28
49709;BME280;35601;55.902;13.606;2024-01-30T02:39:47;101833.89;;;-1.54;74.27
49709;BME280;35601;55.902;13.606;2024-01-30T02:42:12;101835.24;;;-1.53;74.38
49709;BME280;35601;55.902;13.606;2024-01-30T02:44:38;101833.93;;;-1.34;74.17
49709;BME280;35601;55.902;13.606;2024-01-30T02:47:03;101829.20;;;-1.19;73.86
49709;BME280;35601;55.902;13.606;2024-01-30T02:49:28;101822.01;;;-1.12;73.04
49709;BME280;35601;55.902;13.606;2024-01-30T02:51:54;101811.03;;;-1.62;73.56
49709;BME280;35601;55.902;13.606;2024-01-30T02:54:20;101804.83;;;-1.74;74.49
49709;BME280;35601;55.902;13.606;2024-01-30T02:56:45;101801.93;;;-1.47;73.84
49709;BME280;35601;55.902;13.606;2024-01-30T02:59:11;101801.78;;;-1.42;73.99
49709;BME280;35601;55.902;13.606;2024-01-30T03:01:42;101799.56;;;-1.40;73.49
49709;BME280;35601;55.902;13.606;2024-01-30T03:04:02;101798.22;;;-1.56;73.96
49709;BME280;35601;55.902;13.606;2024-01-30T03:06:27;101796.99;;;-1.41;73.64
49709;BME280;35601;55.902;13.606;2024-01-30T03:08:52;101795.06;;;-1.10;73.64
49709;BME280;35601;55.902;13.606;2024-01-30T03:11:17;101799.67;;;-1.26;73.57
49709;BME280;35601;55.902;13.606;2024-01-30T03:13:43;101799.18;;;-0.91;73.47
49709;BME280;35601;55.902;13.606;2024-01-30T03:16:08;101800.26;;;-0.91;73.31
49709;BME280;35601;55.902;13.606;2024-01-30T03:18:33;101799.86;;;-1.24;73.33
49709;BME280;35601;55.902;13.606;2024-01-30T03:20:58;101797.04;;;-0.90;73.12
49709;BME280;35601;55.902;13.606;2024-01-30T03:23:24;101796.50;;;-1.06;72.78
49709;BME280;35601;55.902;13.606;2024-01-30T03:25:49;101797.86;;;-1.00;72.65
49709;BME280;35601;55.902;13.606;2024-01-30T03:28:14;101791.18;;;-0.94;72.48
49709;BME280;35601;55.902;13.606;2024-01-30T03:30:39;101787.71;;;-0.92;72.05
49709;BME280;35601;55.902;13.606;2024-01-30T03:33:05;101789.53;;;-0.96;71.97
49709;BME280;35601;55.902;13.606;2024-01-30T03:35:31;101790.75;;;-0.89;71.78
49709;BME280;35601;55.902;13.606;2024-01-30T03:37:56;101793.87;;;-0.41;71.95
49709;BME280;35601;55.902;13.606;2024-01-30T03:40:21;101797.24;;;-0.81;71.99
49709;BME280;35601;55.902;13.606;2024-01-30T03:42:46;101798.53;;;-0.77;72.00
49709;BME280;35601;55.902;13.606;2024-01-30T03:45:12;101799.83;;;-0.67;71.91
49709;BME280;35601;55.902;13.606;2024-01-30T03:47:37;101795.96;;;-0.62;71.83
49709;BME280;35601;55.902;13.606;2024-01-30T03:50:03;101793.81;;;-0.77;71.68
49709;BME280;35601;55.902;13.606;2024-01-30T03:52:28;101788.65;;;-0.50;71.23
49709;BME280;35601;55.902;13.606;2024-01-30T03:54:53;101784.73;;;-0.49;71.05
49709;BME280;35601;55.902;13.606;2024-01-30T03:57:18;101782.56;;;-0.70;71.19
49709;BME280;35601;55.902;13.606;2024-01-30T03:59:44;101790.32;;;-0.62;71.37
49709;BME280;35601;55.902;13.606;2024-01-30T04:02:10;101797.05;;;-0.57;71.48
49709;BME280;35601;55.902;13.606;2024-01-30T04:04:35;101800.75;;;-0.62;71.75
49709;BME280;35601;55.902;13.606;2024-01-30T04:07:00;101797.96;;;-0.48;71.79
49709;BME280;35601;55.902;13.606;2024-01-30T04:09:25;101803.18;;;-0.51;71.77
49709;BME280;35601;55.902;13.606;2024-01-30T04:11:50;101803.65;;;-0.44;71.94
49709;BME280;35601;55.902;13.606;2024-01-30T04:14:15;101797.44;;;-0.33;71.73
49709;BME280;35601;55.902;13.606;2024-01-30T04:16:40;101786.49;;;-0.84;71.40
49709;BME280;35601;55.902;13.606;2024-01-30T04:19:05;101783.58;;;-0.78;72.37
49709;BME280;35601;55.902;13.606;2024-01-30T04:21:31;101782.39;;;-0.70;72.72
49709;BME280;35601;55.902;13.606;2024-01-30T04:23:57;101780.53;;;-0.51;72.12
49709;BME280;35601;55.902;13.606;2024-01-30T04:26:22;101781.26;;;-0.67;71.99
49709;BME280;35601;55.902;13.606;2024-01-30T04:28:47;101776.38;;;-0.38;71.89
49709;BME280;35601;55.902;13.606;2024-01-30T04:31:12;101780.77;;;-0.39;71.91
49709;BME280;35601;55.902;13.606;2024-01-30T04:33:38;101780.99;;;-0.33;71.95
49709;BME280;35601;55.902;13.606;2024-01-30T04:36:04;101789.90;;;-0.39;72.21
49709;BME280;35601;55.902;13.606;2024-01-30T04:38:29;101791.84;;;-0.61;73.36
49709;BME280;35601;55.902;13.606;2024-01-30T04:40:54;101793.67;;;-0.47;73.23
49709;BME280;35601;55.902;13.606;2024-01-30T04:43:19;101784.39;;;-0.41;73.25
49709;BME280;35601;55.902;13.606;2024-01-30T04:45:45;101782.28;;;-0.24;72.90
49709;BME280;35601;55.902;13.606;2024-01-30T04:48:10;101770.01;;;-0.16;72.50
49709;BME280;35601;55.902;13.606;2024-01-30T04:50:36;101777.06;;;-0.15;72.46
49709;BME280;35601;55.902;13.606;2024-01-30T04:53:01;101780.77;;;-0.29;72.40
49709;BME280;35601;55.902;13.606;2024-01-30T04:55:27;101789.09;;;-0.25;72.21
49709;BME280;35601;55.902;13.606;2024-01-30T04:57:52;101786.42;;;0.06;72.19
49709;BME280;35601;55.902;13.606;2024-01-30T05:00:18;101778.64;;;-0.35;71.92
49709;BME280;35601;55.902;13.606;2024-01-30T05:02:43;101781.58;;;-0.07;71.78
49709;BME280;35601;55.902;13.606;2024-01-30T05:05:09;101789.03;;;-0.09;71.62
49709;BME280;35601;55.902;13.606;2024-01-30T05:07:34;101788.67;;;-0.22;71.75
49709;BME280;35601;55.902;13.606;2024-01-30T05:10:00;101787.94;;;0.15;71.12
49709;BME280;35601;55.902;13.606;2024-01-30T05:12:26;101789.48;;;0.37;70.90
49709;BME280;35601;55.902;13.606;2024-01-30T05:14:51;101788.09;;;0.19;70.85
49709;BME280;35601;55.902;13.606;2024-01-30T05:17:16;101791.81;;;0.20;70.69
49709;BME280;35601;55.902;13.606;2024-01-30T05:19:42;101787.69;;;0.30;70.59
49709;BME280;35601;55.902;13.606;2024-01-30T05:22:07;101785.52;;;-0.06;70.91
49709;BME280;35601;55.902;13.606;2024-01-30T05:24:33;101786.03;;;-0.19;71.50
49709;BME280;35601;55.902;13.606;2024-01-30T05:26:57;101790.29;;;-0.52;72.65
49709;BME280;35601;55.902;13.606;2024-01-30T05:29:24;101788.76;;;-0.87;74.17
49709;BME280;35601;55.902;13.606;2024-01-30T05:31:48;101792.40;;;-0.82;75.33
49709;BME280;35601;55.902;13.606;2024-01-30T05:34:14;101794.84;;;-0.65;76.13
49709;BME280;35601;55.902;13.606;2024-01-30T05:36:39;101792.40;;;-0.94;77.44
49709;BME280;35601;55.902;13.606;2024-01-30T05:39:05;101782.21;;;-0.67;77.55
49709;BME280;35601;55.902;13.606;2024-01-30T05:41:30;101780.25;;;-0.42;76.45
49709;BME280;35601;55.902;13.606;2024-01-30T05:43:56;101781.59;;;-0.23;75.75
49709;BME280;35601;55.902;13.606;2024-01-30T05:46:22;101783.16;;;-0.31;75.33
49709;BME280;35601;55.902;13.606;2024-01-30T05:48:46;101781.44;;;0.03;75.02
49709;BME280;35601;55.902;13.606;2024-01-30T05:51:12;101788.60;;;0.04;74.87
49709;BME280;35601;55.902;13.606;2024-01-30T05:53:37;101786.69;;;0.12;75.15
49709;BME280;35601;55.902;13.606;2024-01-30T05:56:03;101789.69;;;0.02;74.66
49709;BME280;35601;55.902;13.606;2024-01-30T05:58:27;101788.71;;;0.01;74.91
49709;BME280;35601;55.902;13.606;2024-01-30T06:00:53;101788.78;;;0.37;74.46
49709;BME280;35601;55.902;13.606;2024-01-30T06:03:18;101782.96;;;0.17;74.12
49709;BME280;35601;55.902;13.606;2024-01-30T06:05:44;101775.89;;;0.20;73.92
49709;BME280;35601;55.902;13.606;2024-01-30T06:08:09;101777.25;;;-0.03;74.02
49709;BME280;35601;55.902;13.606;2024-01-30T06:10:35;101778.92;;;0.28;73.94
49709;BME280;35601;55.902;13.606;2024-01-30T06:13:01;101783.99;;;0.47;73.97
49709;BME280;35601;55.902;13.606;2024-01-30T06:15:26;101786.94;;;0.05;75.38
49709;BME280;35601;55.902;13.606;2024-01-30T06:17:51;101789.86;;;0.27;75.64
49709;BME280;35601;55.902;13.606;2024-01-30T06:20:17;101789.95;;;-0.24;76.91
49709;BME280;35601;55.902;13.606;2024-01-30T06:22:42;101793.90;;;-0.42;78.35
49709;BME280;35601;55.902;13.606;2024-01-30T06:25:08;101795.50;;;-0.33;79.69
49709;BME280;35601;55.902;13.606;2024-01-30T06:27:33;101789.42;;;-0.48;80.86
49709;BME280;35601;55.902;13.606;2024-01-30T06:29:59;101787.85;;;-0.49;81.00
49709;BME280;35601;55.902;13.606;2024-01-30T06:32:24;101783.77;;;-0.40;81.43
49709;BME280;35601;55.902;13.606;2024-01-30T06:34:50;101779.95;;;-0.06;80.57
49709;BME280;35601;55.902;13.606;2024-01-30T06:37:16;101779.22;;;0.16;79.55
49709;BME280;35601;55.902;13.606;2024-01-30T06:39:41;101783.95;;;0.08;78.94
49709;BME280;35601;55.902;13.606;2024-01-30T06:42:06;101784.39;;;0.45;78.35
49709;BME280;35601;55.902;13.606;2024-01-30T06:44:31;101781.35;;;0.53;78.01
49709;BME280;35601;55.902;13.606;2024-01-30T06:46:57;101777.09;;;0.39;77.68
49709;BME280;35601;55.902;13.606;2024-01-30T06:49:22;101777.70;;;0.47;77.35
49709;BME280;35601;55.902;13.606;2024-01-30T06:51:48;101776.64;;;0.54;77.04
49709;BME280;35601;55.902;13.606;2024-01-30T06:54:14;101774.02;;;0.62;76.67
49709;BME280;35601;55.902;13.606;2024-01-30T06:56:39;101771.66;;;0.39;76.45
49709;BME280;35601;55.902;13.606;2024-01-30T06:59:05;101764.63;;;0.41;76.41
49709;BME280;35601;55.902;13.606;2024-01-30T07:01:31;101764.85;;;0.35;76.47
49709;BME280;35601;55.902;13.606;2024-01-30T07:03:57;101762.28;;;0.42;76.37
49709;BME280;35601;55.902;13.606;2024-01-30T07:06:22;101760.01;;;0.48;76.24
49709;BME280;35601;55.902;13.606;2024-01-30T07:08:48;101762.21;;;0.77;76.21
49709;BME280;35601;55.902;13.606;2024-01-30T07:11:19;101758.99;;;0.54;76.18
49709;BME280;35601;55.902;13.606;2024-01-30T07:13:38;101761.51;;;0.53;76.33
49709;BME280;35601;55.902;13.606;2024-01-30T07:16:04;101761.11;;;0.69;76.71
49709;BME280;35601;55.902;13.606;2024-01-30T07:18:30;101772.95;;;0.26;76.97
49709;BME280;35601;55.902;13.606;2024-01-30T07:20:55;101763.93;;;0.41;77.48
49709;BME280;35601;55.902;13.606;2024-01-30T07:23:20;101769.62;;;0.52;77.19
49709;BME280;35601;55.902;13.606;2024-01-30T07:25:45;101774.12;;;0.73;77.34
49709;BME280;35601;55.902;13.606;2024-01-30T07:28:11;101782.80;;;0.27;78.63
49709;BME280;35601;55.902;13.606;2024-01-30T07:30:36;101787.46;;;-0.03;80.45
49709;BME280;35601;55.902;13.606;2024-01-30T07:33:01;101790.78;;;0.30;81.37
49709;BME280;35601;55.902;13.606;2024-01-30T07:35:27;101790.77;;;0.43;82.27
49709;BME280;35601;55.902;13.606;2024-01-30T07:37:53;101795.69;;;0.26;82.49
49709;BME280;35601;55.902;13.606;2024-01-30T07:40:18;101795.57;;;0.42;82.38
49709;BME280;35601;55.902;13.606;2024-01-30T07:42:44;101795.87;;;0.05;82.62
49709;BME280;35601;55.902;13.606;2024-01-30T07:45:09;101792.43;;;0.46;82.98
49709;BME280;35601;55.902;13.606;2024-01-30T07:47:35;101795.45;;;0.47;82.65
49709;BME280;35601;55.902;13.606;2024-01-30T07:50:01;101790.90;;;0.25;83.12
49709;BME280;35601;55.902;13.606;2024-01-30T07:52:25;101789.46;;;0.33;83.74
49709;BME280;35601;55.902;13.606;2024-01-30T07:54:51;101786.11;;;0.54;83.72
49709;BME280;35601;55.902;13.606;2024-01-30T07:57:17;101779.98;;;0.60;83.12
49709;BME280;35601;55.902;13.606;2024-01-30T07:59:43;101778.82;;;0.58;83.07
49709;BME280;35601;55.902;13.606;2024-01-30T08:02:08;101778.29;;;0.58;84.22
49709;BME280;35601;55.902;13.606;2024-01-30T08:04:33;101771.65;;;0.39;86.15
49709;BME280;35601;55.902;13.606;2024-01-30T08:06:59;101769.89;;;0.35;86.46
49709;BME280;35601;55.902;13.606;2024-01-30T08:09:24;101772.47;;;0.11;87.22
49709;BME280;35601;55.902;13.606;2024-01-30T08:11:49;101772.94;;;0.39;87.60
49709;BME280;35601;55.902;13.606;2024-01-30T08:14:15;101766.23;;;0.34;88.29
49709;BME280;35601;55.902;13.606;2024-01-30T08:16:41;101765.93;;;0.21;89.00
49709;BME280;35601;55.902;13.606;2024-01-30T08:19:06;101763.56;;;-0.01;90.11
49709;BME280;35601;55.902;13.606;2024-01-30T08:21:32;101759.13;;;0.24;91.51
49709;BME280;35601;55.902;13.606;2024-01-30T08:23:57;101752.25;;;-0.14;93.11
49709;BME280;35601;55.902;13.606;2024-01-30T08:26:22;101750.18;;;-0.08;94.19
49709;BME280;35601;55.902;13.606;2024-01-30T08:28:48;101752.73;;;0.09;94.38
49709;BME280;35601;55.902;13.606;2024-01-30T08:31:13;101755.61;;;0.17;94.74
49709;BME280;35601;55.902;13.606;2024-01-30T08:33:38;101753.03;;;0.42;94.08
49709;BME280;35601;55.902;13.606;2024-01-30T08:36:04;101747.82;;;0.42;93.68
49709;BME280;35601;55.902;13.606;2024-01-30T08:38:29;101744.83;;;0.34;94.71
49709;BME280;35601;55.902;13.606;2024-01-30T08:40:55;101741.68;;;0.22;95.23
49709;BME280;35601;55.902;13.606;2024-01-30T08:43:20;101742.85;;;0.56;94.86
49709;BME280;35601;55.902;13.606;2024-01-30T08:45:46;101745.23;;;0.15;94.72
49709;BME280;35601;55.902;13.606;2024-01-30T08:48:11;101745.47;;;0.33;94.39
49709;BME280;35601;55.902;13.606;2024-01-30T08:50:37;101744.80;;;0.42;94.16
49709;BME280;35601;55.902;13.606;2024-01-30T08:53:03;101745.23;;;0.54;93.78
49709;BME280;35601;55.902;13.606;2024-01-30T08:55:28;101741.47;;;0.32;94.78
49709;BME280;35601;55.902;13.606;2024-01-30T08:57:53;101740.85;;;0.58;95.11
49709;BME280;35601;55.902;13.606;2024-01-30T09:00:19;101739.33;;;0.34;95.91
49709;BME280;35601;55.902;13.606;2024-01-30T09:02:45;101735.55;;;0.25;96.48
49709;BME280;35601;55.902;13.606;2024-01-30T09:05:10;101731.82;;;0.51;95.83
49709;BME280;35601;55.902;13.606;2024-01-30T09:07:35;101736.09;;;0.55;95.99
49709;BME280;35601;55.902;13.606;2024-01-30T09:10:00;101733.40;;;0.48;96.01
49709;BME280;35601;55.902;13.606;2024-01-30T09:12:26;101737.77;;;0.68;96.39
49709;BME280;35601;55.902;13.606;2024-01-30T09:14:51;101737.45;;;0.27;97.23
49709;BME280;35601;55.902;13.606;2024-01-30T09:17:17;101734.89;;;0.72;97.85
49709;BME280;35601;55.902;13.606;2024-01-30T09:19:42;101730.26;;;0.99;97.18
49709;BME280;35601;55.902;13.606;2024-01-30T09:22:08;101725.74;;;0.64;97.54
49709;BME280;35601;55.902;13.606;2024-01-30T09:24:34;101724.56;;;0.58;98.32
49709;BME280;35601;55.902;13.606;2024-01-30T09:27:00;101725.63;;;0.75;97.74
49709;BME280;35601;55.902;13.606;2024-01-30T09:29:25;101733.36;;;0.56;98.67
49709;BME280;35601;55.902;13.606;2024-01-30T09:31:50;101730.10;;;0.82;98.29
49709;BME280;35601;55.902;13.606;2024-01-30T09:34:15;101724.61;;;0.69;98.55
49709;BME280;35601;55.902;13.606;2024-01-30T09:36:41;101721.51;;;0.65;97.84
49709;BME280;35601;55.902;13.606;2024-01-30T09:39:07;101720.00;;;0.52;97.44
49709;BME280;35601;55.902;13.606;2024-01-30T09:41:33;101717.48;;;0.71;97.87
49709;BME280;35601;55.902;13.606;2024-01-30T09:43:59;101714.39;;;0.81;97.51
49709;BME280;35601;55.902;13.606;2024-01-30T09:46:26;101705.59;;;0.89;97.76
49709;BME280;35601;55.902;13.606;2024-01-30T09:48:49;101701.20;;;0.94;97.49
49709;BME280;35601;55.902;13.606;2024-01-30T09:51:15;101696.80;;;1.24;96.61
49709;BME280;35601;55.902;13.606;2024-01-30T09:53:41;101696.08;;;1.44;95.78
49709;BME280;35601;55.902;13.606;2024-01-30T09:56:05;101695.29;;;0.98;95.25
49709;BME280;35601;55.902;13.606;2024-01-30T09:58:31;101693.48;;;1.57;95.34
49709;BME280;35601;55.902;13.606;2024-01-30T10:00:56;101689.70;;;1.43;94.70
49709;BME280;35601;55.902;13.606;2024-01-30T10:03:21;101685.71;;;1.85;94.12
49709;BME280;35601;55.902;13.606;2024-01-30T10:05:51;101682.50;;;1.65;93.68
49709;BME280;35601;55.902;13.606;2024-01-30T10:08:12;101678.70;;;1.70;93.70
49709;BME280;35601;55.902;13.606;2024-01-30T10:10:37;101681.43;;;1.66;93.83
49709;BME280;35601;55.902;13.606;2024-01-30T10:13:03;101678.87;;;1.85;94.46
49709;BME280;35601;55.902;13.606;2024-01-30T10:15:28;101678.66;;;1.73;94.50
49709;BME280;35601;55.902;13.606;2024-01-30T10:17:53;101678.83;;;1.97;94.76
49709;BME280;35601;55.902;13.606;2024-01-30T10:20:19;101679.99;;;1.79;94.68
49709;BME280;35601;55.902;13.606;2024-01-30T10:22:44;101674.37;;;1.99;94.78
49709;BME280;35601;55.902;13.606;2024-01-30T10:25:09;101671.10;;;1.93;95.41
49709;BME280;35601;55.902;13.606;2024-01-30T10:27:34;101672.94;;;1.70;95.12
49709;BME280;35601;55.902;13.606;2024-01-30T10:30:00;101678.36;;;1.66;95.11
49709;BME280;35601;55.902;13.606;2024-01-30T10:32:25;101675.66;;;2.10;95.24
49709;BME280;35601;55.902;13.606;2024-01-30T10:34:50;101675.77;;;1.87;95.01
49709;BME280;35601;55.902;13.606;2024-01-30T10:37:17;101674.39;;;1.59;94.80
49709;BME280;35601;55.902;13.606;2024-01-30T10:39:42;101670.34;;;1.47;95.26
49709;BME280;35601;55.902;13.606;2024-01-30T10:42:11;101666.69;;;1.93;95.15
49709;BME280;35601;55.902;13.606;2024-01-30T10:44:37;101660.34;;;1.72;94.55
49709;BME280;35601;55.902;13.606;2024-01-30T10:47:05;101661.04;;;1.83;94.75
49709;BME280;35601;55.902;13.606;2024-01-30T10:49:24;101660.61;;;1.84;94.22
49709;BME280;35601;55.902;13.606;2024-01-30T10:51:50;101656.52;;;2.07;94.50
49709;BME280;35601;55.902;13.606;2024-01-30T10:54:15;101656.08;;;1.74;95.40
49709;BME280;35601;55.902;13.606;2024-01-30T10:56:40;101652.97;;;1.98;95.31
49709;BME280;35601;55.902;13.606;2024-01-30T10:59:05;101652.92;;;2.21;94.55
49709;BME280;35601;55.902;13.606;2024-01-30T11:01:31;101651.31;;;1.88;93.99
49709;BME280;35601;55.902;13.606;2024-01-30T11:03:56;101646.28;;;1.61;94.59
49709;BME280;35601;55.902;13.606;2024-01-30T11:06:22;101640.63;;;1.97;95.31
49709;BME280;35601;55.902;13.606;2024-01-30T11:09:00;101636.88;;;2.14;94.66
49709;BME280;35601;55.902;13.606;2024-01-30T11:11:13;101629.68;;;1.81;94.45
49709;BME280;35601;55.902;13.606;2024-01-30T11:13:38;101622.02;;;1.67;95.88
49709;BME280;35601;55.902;13.606;2024-01-30T11:16:04;101623.98;;;1.97;95.97
49709;BME280;35601;55.902;13.606;2024-01-30T11:18:30;101622.10;;;1.99;95.04
49709;BME280;35601;55.902;13.606;2024-01-30T11:20:56;101623.10;;;1.81;95.15
49709;BME280;35601;55.902;13.606;2024-01-30T11:23:22;101621.95;;;2.00;95.60
49709;BME280;35601;55.902;13.606;2024-01-30T11:25:45;101615.71;;;2.17;94.86
49709;BME280;35601;55.902;13.606;2024-01-30T11:28:13;101609.21;;;2.24;94.49
49709;BME280;35601;55.902;13.606;2024-01-30T11:30:35;101607.53;;;2.06;94.80
49709;BME280;35601;55.902;13.606;2024-01-30T11:33:02;101605.37;;;2.21;94.57
49709;BME280;35601;55.902;13.606;2024-01-30T11:35:26;101598.42;;;2.40;94.21
49709;BME280;35601;55.902;13.606;2024-01-30T11:37:52;101601.27;;;2.53;93.66
49709;BME280;35601;55.902;13.606;2024-01-30T11:40:17;101604.16;;;2.65;93.21
49709;BME280;35601;55.902;13.606;2024-01-30T11:42:42;101601.79;;;2.67;92.84
49709;BME280;35601;55.902;13.606;2024-01-30T11:45:08;101602.90;;;2.61;92.77
49709;BME280;35601;55.902;13.606;2024-01-30T11:47:35;101604.04;;;2.61;92.83
49709;BME280;35601;55.902;13.606;2024-01-30T11:49:59;101602.49;;;2.42;92.17
49709;BME280;35601;55.902;13.606;2024-01-30T11:52:24;101603.46;;;2.65;91.28
49709;BME280;35601;55.902;13.606;2024-01-30T11:54:50;101601.48;;;2.30;92.10
49709;BME280;35601;55.902;13.606;2024-01-30T11:57:16;101600.14;;;2.55;91.99
49709;BME280;35601;55.902;13.606;2024-01-30T11:59:41;101596.43;;;2.60;91.56
49709;BME280;35601;55.902;13.606;2024-01-30T12:02:07;101591.51;;;2.53;91.65
49709;BME280;35601;55.902;13.606;2024-01-30T12:04:33;101589.40;;;2.26;92.00
49709;BME280;35601;55.902;13.606;2024-01-30T12:06:58;101588.57;;;2.93;91.63
49709;BME280;35601;55.902;13.606;2024-01-30T12:09:24;101587.89;;;2.55;91.23
49709;BME280;35601;55.902;13.606;2024-01-30T12:11:49;101586.11;;;2.52;90.77
49709;BME280;35601;55.902;13.606;2024-01-30T12:14:15;101585.79;;;2.56;90.47
49709;BME280;35601;55.902;13.606;2024-01-30T12:16:40;101584.56;;;2.63;90.33
49709;BME280;35601;55.902;13.606;2024-01-30T12:19:06;101584.20;;;2.77;89.34
49709;BME280;35601;55.902;13.606;2024-01-30T12:21:31;101580.81;;;2.49;89.61
49709;BME280;35601;55.902;13.606;2024-01-30T12:23:57;101575.54;;;2.55;89.85
49709;BME280;35601;55.902;13.606;2024-01-30T12:26:24;101575.49;;;2.84;89.95
49709;BME280;35601;55.902;13.606;2024-01-30T12:28:49;101574.59;;;2.71;89.70
49709;BME280;35601;55.902;13.606;2024-01-30T12:31:14;101571.72;;;2.65;89.39
49709;BME280;35601;55.902;13.606;2024-01-30T12:33:40;101560.77;;;2.66;89.66
49709;BME280;35601;55.902;13.606;2024-01-30T12:36:06;101560.13;;;2.73;89.17